aviador You're here:

KHFF Decoded Metar

HOFFMAN/MACKALL in NC, USA
Report Time2018-02-17 22:56:00
UTC Time2018-02-17 23:32:44
Flight Rules mvfr MVFR
Wind090° at 03 kt
W.Decomp.*RWY 11: 2.9 kt HW 0.7 kt LCW
RWY 04: 1.7 kt HW 2.5 kt RCW
RWY 16: 1.3 kt HW 2.7 kt LCW
W.Rank090° ranks 34
Current wind is below 090° avg. (4.3)
Visibility9999 m
Phenomena:N/A
Clouds:Overcast 016 Hf
Expected CloudBase > 1,600 ft AGL from Temp-Dew spread
Ceiling1,600 ft
Temp12°C (ISA -2)
Dew Point08°C (77% RH)
AAT10.5°C
QNH1019 hPa
Density Alt52 ft
Elevation377 ft
Report Wrong Elevation
Raw Report
KHFF 172256Z AUTO 09003KT 10SM OVC016 12/08 A3008 RMK AO2 SLP202
T01240079 $=

Extra information for KHFF:More info

Metar Taf Metar & Taf Last 4 Metars F.Rules Stats Wind Profile Meteogram Temp Stats Airport Information Weather charts Add Link Nearby VenuesMetar ALERT Operation Metar Decoded Social comments

AIRNAV info for KHFF